createdAt,value
2022-12-20T00:01:38.089Z,101219.21
2022-12-20T00:04:06.102Z,101217.77
2022-12-20T00:06:35.841Z,101213.89
2022-12-20T00:09:04.585Z,101202.12
2022-12-20T00:11:32.449Z,101196.34
2022-12-20T00:14:00.143Z,101199.04
2022-12-20T00:16:29.917Z,101193.51
2022-12-20T00:18:58.599Z,101193.05
2022-12-20T00:21:28.261Z,101184.20
2022-12-20T00:23:56.001Z,101185.31
2022-12-20T00:26:27.228Z,101183.47
2022-12-20T00:28:55.394Z,101188.67
2022-12-20T00:31:25.130Z,101182.92
2022-12-20T00:33:54.964Z,101184.14
2022-12-20T00:36:24.655Z,101184.94
2022-12-20T00:38:55.239Z,101182.86
2022-12-20T00:41:26.278Z,101185.48
2022-12-20T00:43:54.691Z,101179.00
2022-12-20T00:46:24.849Z,101176.63
2022-12-20T00:48:54.596Z,101180.86
2022-12-20T00:51:27.851Z,101183.37
2022-12-20T00:53:56.430Z,101183.09
2022-12-20T00:56:25.772Z,101181.92
2022-12-20T00:58:58.960Z,101173.46
2022-12-20T01:01:30.374Z,101175.47
2022-12-20T01:03:59.062Z,101172.04
2022-12-20T01:06:27.409Z,101169.91
2022-12-20T01:08:55.740Z,101165.54
2022-12-20T01:11:26.271Z,101161.59
2022-12-20T01:13:57.090Z,101161.71
2022-12-20T01:16:38.113Z,101154.38
2022-12-20T01:19:07.870Z,101153.53
2022-12-20T01:21:35.774Z,101153.27
2022-12-20T01:24:04.074Z,101156.89
2022-12-20T01:26:31.680Z,101144.83
2022-12-20T01:29:00.614Z,101140.52
2022-12-20T01:31:30.003Z,101131.08
2022-12-20T01:33:58.331Z,101119.58
2022-12-20T01:36:28.378Z,101119.44
2022-12-20T01:38:59.305Z,101116.05
2022-12-20T01:41:28.677Z,101111.67
2022-12-20T01:43:59.940Z,101105.93
2022-12-20T01:46:30.936Z,101105.77
2022-12-20T01:49:13.256Z,101100.58
2022-12-20T01:51:43.040Z,101098.11
2022-12-20T01:54:16.729Z,101097.53
2022-12-20T01:56:51.285Z,101092.39
2022-12-20T01:59:19.495Z,101088.66
2022-12-20T02:01:47.528Z,101081.52
2022-12-20T02:04:15.246Z,101083.12
2022-12-20T02:06:44.139Z,101078.27
2022-12-20T02:09:12.020Z,101074.66
2022-12-20T02:12:11.013Z,101066.13
2022-12-20T02:15:17.111Z,101065.21
2022-12-20T02:18:12.463Z,101061.73
2022-12-20T02:20:46.267Z,101055.52
2022-12-20T02:23:29.029Z,101053.16
2022-12-20T02:25:59.538Z,101046.64
2022-12-20T02:28:57.857Z,101044.60
2022-12-20T02:31:34.645Z,101041.02
2022-12-20T02:34:03.477Z,101033.07
2022-12-20T02:36:31.501Z,101033.66
2022-12-20T02:38:59.483Z,101036.93
2022-12-20T02:41:33.257Z,101039.73
2022-12-20T02:44:25.443Z,101039.81
2022-12-20T02:46:55.857Z,101039.85
2022-12-20T02:49:28.566Z,101036.68
2022-12-20T02:51:58.406Z,101038.45
2022-12-20T02:54:26.647Z,101036.27
2022-12-20T02:57:02.409Z,101031.30
2022-12-20T02:59:36.336Z,101028.36
2022-12-20T03:02:05.946Z,101028.36
2022-12-20T03:04:39.404Z,101023.00
2022-12-20T03:07:12.653Z,101012.86
2022-12-20T03:09:44.295Z,101010.48
2022-12-20T03:12:16.218Z,100999.95
2022-12-20T03:14:44.110Z,100997.48
2022-12-20T03:17:13.731Z,100994.31
2022-12-20T03:19:41.491Z,100992.41
2022-12-20T03:22:09.140Z,101009.67
2022-12-20T03:24:36.981Z,101003.48
2022-12-20T03:27:07.637Z,101011.48
2022-12-20T03:29:35.933Z,101013.88
2022-12-20T03:32:04.081Z,101017.91
2022-12-20T03:34:31.812Z,101003.36
2022-12-20T03:36:59.481Z,100988.50
2022-12-20T03:39:27.129Z,100988.23
2022-12-20T03:41:55.049Z,100992.06
2022-12-20T03:44:22.823Z,100997.83
2022-12-20T03:46:50.973Z,100988.58
2022-12-20T03:49:19.144Z,100992.08
2022-12-20T03:51:49.648Z,100990.41
2022-12-20T03:54:17.542Z,100993.65
2022-12-20T03:57:08.467Z,101004.83
2022-12-20T03:59:36.298Z,101009.45
2022-12-20T04:02:04.538Z,101010.34
2022-12-20T04:04:32.560Z,101005.39
2022-12-20T04:07:00.362Z,101002.16
2022-12-20T04:09:28.368Z,101011.09
2022-12-20T04:12:02.027Z,101011.33
2022-12-20T04:14:30.699Z,101004.84
2022-12-20T04:16:58.335Z,101009.41
2022-12-20T04:19:25.968Z,101005.52
2022-12-20T04:22:02.642Z,100999.36
2022-12-20T04:24:37.061Z,100990.92
2022-12-20T04:27:24.963Z,100989.88
2022-12-20T04:29:53.924Z,100998.92
2022-12-20T04:32:22.000Z,100991.92
2022-12-20T04:34:49.855Z,101000.15
2022-12-20T04:37:17.996Z,101013.06
2022-12-20T04:39:52.511Z,101014.44
2022-12-20T04:42:23.185Z,101012.06
2022-12-20T04:44:50.949Z,101012.68
2022-12-20T04:47:23.329Z,101011.89
2022-12-20T04:49:51.653Z,101012.98
2022-12-20T04:52:42.130Z,101003.42
2022-12-20T04:55:15.486Z,101004.92
2022-12-20T04:57:43.103Z,101003.33
2022-12-20T05:00:11.591Z,101000.54
2022-12-20T05:02:42.798Z,100997.34
2022-12-20T05:05:14.141Z,100995.98
2022-12-20T05:07:47.071Z,101001.23
2022-12-20T05:10:15.082Z,101005.96
2022-12-20T05:12:43.522Z,101000.50
2022-12-20T05:15:15.289Z,100991.33
2022-12-20T05:17:43.479Z,100980.60
2022-12-20T05:20:12.641Z,100979.14
2022-12-20T05:22:59.223Z,100979.54
2022-12-20T05:25:45.783Z,100980.27
2022-12-20T05:28:14.595Z,100977.89
2022-12-20T05:30:42.250Z,100976.55
2022-12-20T05:33:11.402Z,100968.38
2022-12-20T05:35:42.338Z,100963.38
2022-12-20T05:38:11.836Z,100975.60
2022-12-20T05:40:41.171Z,100976.31
2022-12-20T05:43:09.228Z,100978.86
2022-12-20T05:45:52.609Z,100978.88
2022-12-20T05:48:25.867Z,100978.98
2022-12-20T05:50:53.948Z,100976.49
2022-12-20T05:53:29.649Z,100966.17
2022-12-20T05:56:01.355Z,100965.20
2022-12-20T05:58:33.850Z,100966.02
2022-12-20T06:01:04.892Z,100978.70
2022-12-20T06:03:35.039Z,100977.20
2022-12-20T06:06:10.242Z,100972.62
2022-12-20T06:08:41.692Z,100972.48
2022-12-20T06:11:12.672Z,100966.42
2022-12-20T06:13:49.421Z,100962.16
2022-12-20T06:16:20.788Z,100958.30
2022-12-20T06:18:49.991Z,100959.52
2022-12-20T06:21:18.105Z,100961.59
2022-12-20T06:23:46.158Z,100959.54
2022-12-20T06:26:15.046Z,100963.02
2022-12-20T06:28:57.044Z,100961.98
2022-12-20T06:31:36.538Z,100962.73
2022-12-20T06:34:04.180Z,100964.27
2022-12-20T06:36:35.622Z,100970.58
2022-12-20T06:39:09.405Z,100959.48
2022-12-20T06:41:42.040Z,100953.08
2022-12-20T06:44:09.777Z,100960.81
2022-12-20T06:46:37.559Z,100955.20
2022-12-20T06:49:05.423Z,100953.98
2022-12-20T06:51:33.308Z,100955.30
2022-12-20T06:54:01.512Z,100956.80
2022-12-20T06:56:36.071Z,100963.71
2022-12-20T06:59:09.820Z,100963.74
2022-12-20T07:01:37.545Z,100964.60
2022-12-20T07:04:05.296Z,100968.31
2022-12-20T07:06:32.917Z,100974.75
2022-12-20T07:09:00.742Z,100981.34
2022-12-20T07:11:28.605Z,100984.27
2022-12-20T07:13:57.459Z,100987.20
2022-12-20T07:16:25.238Z,100977.23
2022-12-20T07:18:54.081Z,100983.05
2022-12-20T07:21:22.132Z,100980.39
2022-12-20T07:23:49.747Z,100978.57
2022-12-20T07:26:17.437Z,100974.38
2022-12-20T07:28:45.102Z,100975.77
2022-12-20T07:31:12.788Z,100976.67
2022-12-20T07:33:40.501Z,100981.73
2022-12-20T07:36:11.200Z,100975.79
2022-12-20T07:38:39.497Z,100974.30
2022-12-20T07:41:13.291Z,100973.30
2022-12-20T07:43:41.343Z,100974.95
2022-12-20T07:46:11.811Z,100974.11
2022-12-20T07:48:39.694Z,100973.95
2022-12-20T07:51:21.990Z,100972.69
2022-12-20T07:53:54.879Z,100971.21
2022-12-20T07:56:22.902Z,100972.35
2022-12-20T07:58:54.113Z,100974.92
2022-12-20T08:01:21.942Z,100976.48
2022-12-20T08:03:53.515Z,100973.13
2022-12-20T08:06:21.605Z,100970.91
2022-12-20T08:08:54.804Z,100970.38
2022-12-20T08:11:24.150Z,100972.61
2022-12-20T08:13:57.485Z,100977.90
2022-12-20T08:16:26.266Z,100983.34
2022-12-20T08:18:53.997Z,100984.44
2022-12-20T08:21:21.645Z,100978.69
2022-12-20T08:23:49.315Z,100974.40
2022-12-20T08:26:17.524Z,100969.83
2022-12-20T08:28:45.172Z,100968.55
2022-12-20T08:31:13.121Z,100970.94
2022-12-20T08:33:42.315Z,100967.80
2022-12-20T08:36:12.435Z,100973.37
2022-12-20T08:38:40.793Z,100971.60
2022-12-20T08:41:14.090Z,100969.13
2022-12-20T08:43:42.104Z,100968.31
2022-12-20T08:46:12.002Z,100966.61
2022-12-20T08:48:40.107Z,100964.04
2022-12-20T08:51:10.573Z,100958.19
2022-12-20T08:53:39.019Z,100957.64
2022-12-20T08:56:16.095Z,100960.63
2022-12-20T08:58:45.077Z,100963.63
2022-12-20T09:01:17.386Z,100962.77
2022-12-20T09:03:46.063Z,100965.08
2022-12-20T09:06:19.753Z,100967.57
2022-12-20T09:08:48.160Z,100965.47
2022-12-20T09:11:24.931Z,100965.51
2022-12-20T09:13:55.017Z,100970.77
2022-12-20T09:16:26.497Z,100965.95
2022-12-20T09:19:04.312Z,100966.34
2022-12-20T09:21:34.519Z,100968.67
2022-12-20T09:24:02.198Z,100963.59
2022-12-20T09:26:30.703Z,100959.52
2022-12-20T09:28:58.809Z,100955.04
2022-12-20T09:31:27.222Z,100959.64
2022-12-20T09:33:57.993Z,100955.05
2022-12-20T09:36:27.679Z,100956.07
2022-12-20T09:38:56.388Z,100954.20
2022-12-20T09:41:38.111Z,100949.91
2022-12-20T09:44:14.469Z,100953.95
2022-12-20T09:46:44.875Z,100945.67
2022-12-20T09:49:17.598Z,100947.22
2022-12-20T09:52:10.230Z,100953.23
2022-12-20T09:55:01.858Z,100958.18
2022-12-20T09:57:45.055Z,100955.67
2022-12-20T10:00:18.763Z,100957.84
2022-12-20T10:03:10.059Z,100962.18
2022-12-20T10:05:46.187Z,100953.77
2022-12-20T10:08:37.325Z,100947.08
2022-12-20T10:11:36.272Z,100946.55
2022-12-20T10:14:32.188Z,100941.87
2022-12-20T10:17:15.732Z,100950.56
2022-12-20T10:20:08.782Z,100948.63
2022-12-20T10:22:46.415Z,100946.34
2022-12-20T10:25:20.141Z,100949.11
2022-12-20T10:27:50.715Z,100944.04
2022-12-20T10:30:21.231Z,100945.38
2022-12-20T10:32:51.424Z,100946.71
2022-12-20T10:35:25.613Z,100947.67
2022-12-20T10:38:07.165Z,100944.57
2022-12-20T10:41:18.891Z,100939.27
2022-12-20T10:43:28.810Z,100931.52
2022-12-20T10:46:06.407Z,100931.33
2022-12-20T10:48:44.173Z,100928.59
2022-12-20T10:51:16.483Z,100925.35
2022-12-20T10:53:52.273Z,100916.06
2022-12-20T10:56:30.291Z,100913.98
2022-12-20T10:59:21.701Z,100906.64
2022-12-20T11:01:50.608Z,100903.31
2022-12-20T11:04:28.314Z,100892.41
2022-12-20T11:06:58.104Z,100886.50
2022-12-20T11:09:25.812Z,100886.69
2022-12-20T11:12:14.965Z,100878.86
2022-12-20T11:14:45.313Z,100874.69
2022-12-20T11:17:29.438Z,100867.58
2022-12-20T11:20:16.563Z,100856.78
2022-12-20T11:22:53.066Z,100859.11
2022-12-20T11:25:39.519Z,100860.80
2022-12-20T11:28:39.450Z,100869.58
2022-12-20T11:31:25.686Z,100875.35
2022-12-20T11:34:03.481Z,100870.70
2022-12-20T11:36:54.927Z,100868.36
2022-12-20T11:39:34.736Z,100865.06
2022-12-20T11:42:31.581Z,100862.23
2022-12-20T11:45:15.407Z,100855.15
2022-12-20T11:48:08.631Z,100850.39
2022-12-20T11:50:55.736Z,100850.66
2022-12-20T11:53:45.951Z,100853.98
2022-12-20T11:56:31.161Z,100855.25
2022-12-20T11:59:05.655Z,100849.55
2022-12-20T12:01:43.974Z,100840.45
2022-12-20T12:04:21.787Z,100836.02
2022-12-20T12:06:59.376Z,100832.75
2022-12-20T12:09:32.815Z,100833.80
2022-12-20T12:12:07.816Z,100832.40
2022-12-20T12:14:45.668Z,100838.38
2022-12-20T12:17:24.981Z,100840.98
2022-12-20T12:19:56.457Z,100844.80
2022-12-20T12:22:32.180Z,100846.17
2022-12-20T12:25:04.323Z,100844.85
2022-12-20T12:27:32.890Z,100847.40
2022-12-20T12:30:01.161Z,100845.85
2022-12-20T12:32:44.386Z,100843.59
2022-12-20T12:35:47.391Z,100840.75
2022-12-20T12:38:46.009Z,100832.64
2022-12-20T12:41:32.629Z,100833.73
2022-12-20T12:44:31.196Z,100827.95
2022-12-20T12:47:05.026Z,100833.70
2022-12-20T12:49:34.056Z,100835.98
2022-12-20T12:52:05.316Z,100836.64
2022-12-20T12:54:41.167Z,100839.11
2022-12-20T12:57:16.154Z,100842.83
2022-12-20T12:59:48.891Z,100847.95
2022-12-20T13:02:17.616Z,100851.22
2022-12-20T13:05:06.814Z,100848.80
2022-12-20T13:07:35.330Z,100842.71
2022-12-20T13:10:29.573Z,100848.23
2022-12-20T13:12:59.589Z,100843.58
2022-12-20T13:15:27.200Z,100843.58
2022-12-20T13:17:58.090Z,100845.48
2022-12-20T13:20:27.472Z,100847.54
2022-12-20T13:23:13.191Z,100849.77
2022-12-20T13:25:48.919Z,100855.93
2022-12-20T13:28:16.767Z,100851.85
2022-12-20T13:30:48.728Z,100848.08
2022-12-20T13:33:21.447Z,100848.88
2022-12-20T13:35:59.032Z,100845.89
2022-12-20T13:38:45.459Z,100853.06
2022-12-20T13:41:40.670Z,100849.54
2022-12-20T13:44:14.280Z,100852.85
2022-12-20T13:47:03.867Z,100856.66
2022-12-20T13:49:43.178Z,100856.58
2022-12-20T13:52:11.044Z,100857.97
2022-12-20T13:54:48.898Z,100853.00
2022-12-20T13:57:21.818Z,100850.36
2022-12-20T13:59:56.278Z,100845.92
2022-12-20T14:02:33.277Z,100839.88
2022-12-20T14:05:10.213Z,100837.38
2022-12-20T14:07:38.212Z,100834.98
2022-12-20T14:10:21.358Z,100826.16
2022-12-20T14:12:54.004Z,100823.26
2022-12-20T14:15:24.634Z,100824.90
2022-12-20T14:17:52.421Z,100830.11
2022-12-20T14:20:31.623Z,100833.06
2022-12-20T14:23:09.385Z,100830.86
2022-12-20T14:25:43.462Z,100830.55
2022-12-20T14:28:35.580Z,100830.23
2022-12-20T14:31:05.339Z,100825.92
2022-12-20T14:33:37.803Z,100824.86
2022-12-20T14:36:19.417Z,100826.27
2022-12-20T14:38:50.028Z,100828.61
2022-12-20T14:41:37.951Z,100828.36
2022-12-20T14:44:08.256Z,100833.95
2022-12-20T14:46:39.394Z,100832.80
2022-12-20T14:49:27.129Z,100838.52
2022-12-20T14:52:20.363Z,100837.74
2022-12-20T14:55:07.888Z,100833.69
2022-12-20T14:57:36.939Z,100837.10
2022-12-20T15:14:36.941Z,100816.13
2022-12-20T15:17:13.714Z,100799.27
2022-12-20T15:19:42.592Z,100794.98
2022-12-20T15:22:23.488Z,100795.56
2022-12-20T15:24:50.641Z,100795.61
2022-12-20T15:27:17.252Z,100794.34
2022-12-20T15:29:43.645Z,100792.23
2022-12-20T15:32:20.755Z,100786.88
2022-12-20T15:34:47.014Z,100788.45
2022-12-20T15:37:18.370Z,100781.17
2022-12-20T15:39:45.903Z,100778.75
2022-12-20T15:42:15.918Z,100777.86
2022-12-20T15:44:43.240Z,100783.81
2022-12-20T15:47:13.065Z,100791.30
2022-12-20T15:49:44.595Z,100781.30
2022-12-20T15:52:22.541Z,100777.69
2022-12-20T15:54:49.813Z,100774.27
2022-12-20T15:57:16.158Z,100773.42
2022-12-20T16:00:00.536Z,100776.50
2022-12-20T16:02:30.169Z,100777.88
2022-12-20T16:04:58.008Z,100782.52
2022-12-20T16:07:24.310Z,100775.72
2022-12-20T16:09:50.675Z,100779.13
2022-12-20T16:12:31.107Z,100771.62
2022-12-20T16:14:57.530Z,100771.83
2022-12-20T16:17:24.271Z,100765.91
2022-12-20T16:19:50.791Z,100770.27
2022-12-20T16:22:19.730Z,100767.86
2022-12-20T16:24:46.127Z,100774.46
2022-12-20T16:27:12.713Z,100778.15
2022-12-20T16:29:40.726Z,100777.17
2022-12-20T16:32:18.438Z,100778.04
2022-12-20T16:34:45.545Z,100775.70
2022-12-20T16:37:12.494Z,100775.17
2022-12-20T16:39:40.340Z,100773.61
2022-12-20T16:42:17.590Z,100776.43
2022-12-20T16:44:44.607Z,100780.42
2022-12-20T16:47:11.403Z,100783.34
2022-12-20T16:49:37.982Z,100777.75
2022-12-20T16:52:06.053Z,100772.64
2022-12-20T16:54:32.758Z,100767.46
2022-12-20T16:56:59.052Z,100758.55
2022-12-20T16:59:25.492Z,100758.73
2022-12-20T17:01:54.825Z,100764.75
2022-12-20T17:04:22.829Z,100766.45
2022-12-20T17:06:49.676Z,100761.48
2022-12-20T17:09:17.695Z,100756.79
2022-12-20T17:11:44.565Z,100756.81
2022-12-20T17:14:13.210Z,100762.80
2022-12-20T17:16:40.809Z,100762.46
2022-12-20T17:19:08.552Z,100767.27
2022-12-20T17:24:22.781Z,100753.94
2022-12-20T17:26:51.529Z,100737.84
2022-12-20T17:29:18.204Z,100730.05
2022-12-20T17:31:46.222Z,100727.51
2022-12-20T17:34:16.505Z,100724.20
2022-12-20T17:36:42.850Z,100728.55
2022-12-20T17:39:09.739Z,100734.00
2022-12-20T17:41:37.669Z,100733.75
2022-12-20T17:44:06.408Z,100723.03
2022-12-20T17:46:32.970Z,100714.75
2022-12-20T17:48:59.291Z,100723.52
2022-12-20T17:51:28.086Z,100728.73
2022-12-20T17:53:58.482Z,100727.30
2022-12-20T17:56:50.012Z,100730.91
2022-12-20T17:59:17.978Z,100733.70
2022-12-20T18:04:01.445Z,100727.16
2022-12-20T18:06:12.808Z,100723.73
2022-12-20T18:08:41.605Z,100721.86
2022-12-20T18:11:10.389Z,100719.23
2022-12-20T18:13:44.462Z,100723.11
2022-12-20T18:16:14.068Z,100721.85
2022-12-20T18:18:42.080Z,100720.74
2022-12-20T18:21:17.121Z,100719.38
2022-12-20T18:23:49.635Z,100716.80
2022-12-20T18:26:17.292Z,100706.55
2022-12-20T18:28:47.440Z,100704.95
2022-12-20T18:31:21.155Z,100708.51
2022-12-20T18:33:53.886Z,100714.28
2022-12-20T18:36:30.589Z,100708.63
2022-12-20T18:39:00.056Z,100703.28
2022-12-20T18:41:29.893Z,100701.58
2022-12-20T18:44:00.299Z,100706.59
2022-12-20T18:46:28.878Z,100722.82
2022-12-20T18:48:58.711Z,100722.63
2022-12-20T18:51:33.701Z,100717.00
2022-12-20T18:54:06.167Z,100707.20
2022-12-20T18:56:36.810Z,100705.96
2022-12-20T18:59:11.480Z,100709.41
2022-12-20T19:01:42.517Z,100705.53
2022-12-20T19:04:12.049Z,100711.70
2022-12-20T19:06:53.030Z,100710.61
2022-12-20T19:09:22.411Z,100708.05
2022-12-20T19:11:56.203Z,100716.34
2022-12-20T19:14:24.565Z,100720.23
2022-12-20T19:16:52.509Z,100719.17
2022-12-20T19:19:20.573Z,100713.27
2022-12-20T19:21:48.192Z,100710.90
2022-12-20T19:24:16.090Z,100703.88
2022-12-20T19:26:44.753Z,100702.21
2022-12-20T19:29:12.393Z,100700.16
2022-12-20T19:31:40.401Z,100690.98
2022-12-20T19:34:11.457Z,100686.92
2022-12-20T19:36:42.318Z,100682.83
2022-12-20T19:39:20.787Z,100687.21
2022-12-20T19:42:21.624Z,100690.63
2022-12-20T19:44:37.911Z,100695.25
2022-12-20T19:47:06.332Z,100708.29
2022-12-20T19:49:36.415Z,100704.79
2022-12-20T19:52:07.624Z,100696.86
2022-12-20T19:54:37.572Z,100689.80
2022-12-20T19:57:05.882Z,100687.08
2022-12-20T19:59:33.882Z,100682.39
2022-12-20T20:02:02.043Z,100686.98
2022-12-20T20:04:33.169Z,100694.25
2022-12-20T20:07:00.943Z,100684.05
2022-12-20T20:09:28.572Z,100681.50
2022-12-20T20:11:58.184Z,100684.36
2022-12-20T20:14:25.938Z,100672.95
2022-12-20T20:16:54.153Z,100667.42
2022-12-20T20:19:22.212Z,100657.46
2022-12-20T20:21:50.685Z,100658.81
2022-12-20T20:24:18.830Z,100659.28
2022-12-20T20:26:46.618Z,100646.33
2022-12-20T20:29:14.634Z,100652.61
2022-12-20T20:31:42.356Z,100647.23
2022-12-20T20:34:10.866Z,100635.48
2022-12-20T20:36:38.670Z,100628.41
2022-12-20T20:39:06.568Z,100628.73
2022-12-20T20:41:34.285Z,100625.40
2022-12-20T20:44:02.923Z,100624.62
2022-12-20T20:46:30.590Z,100622.05
2022-12-20T20:48:58.431Z,100624.75
2022-12-20T20:51:26.283Z,100629.00
2022-12-20T20:53:54.021Z,100629.16
2022-12-20T20:56:21.842Z,100640.87
2022-12-20T20:58:50.014Z,100647.60
2022-12-20T21:03:47.524Z,100644.72
2022-12-20T21:06:39.181Z,100645.11
2022-12-20T21:09:05.176Z,100638.16
2022-12-20T21:11:34.697Z,100627.38
2022-12-20T21:14:03.050Z,100629.73
2022-12-20T21:16:31.075Z,100636.81
2022-12-20T21:18:59.201Z,100628.22
2022-12-20T21:21:26.949Z,100624.23
2022-12-20T21:23:56.113Z,100627.38
2022-12-20T21:26:25.423Z,100631.17
2022-12-20T21:28:59.833Z,100622.75
2022-12-20T21:31:28.443Z,100621.73
2022-12-20T21:33:57.002Z,100611.32
2022-12-20T21:36:25.604Z,100614.85
2022-12-20T21:38:55.826Z,100614.27
2022-12-20T21:41:26.837Z,100614.31
2022-12-20T21:43:59.549Z,100615.21
2022-12-20T21:46:29.535Z,100618.16
2022-12-20T21:48:58.822Z,100628.30
2022-12-20T21:51:30.865Z,100626.98
2022-12-20T21:54:01.389Z,100624.52
2022-12-20T21:56:31.656Z,100618.94
2022-12-20T21:59:00.027Z,100611.80
2022-12-20T22:01:29.143Z,100613.38
2022-12-20T22:04:03.776Z,100610.95
2022-12-20T22:06:32.313Z,100610.65
2022-12-20T22:09:01.396Z,100610.30
2022-12-20T22:11:29.179Z,100610.89
2022-12-20T22:13:58.368Z,100614.11
2022-12-20T22:16:35.207Z,100613.65
2022-12-20T22:19:03.594Z,100603.11
2022-12-20T22:21:33.584Z,100597.37
2022-12-20T22:24:02.993Z,100593.20
2022-12-20T22:26:33.321Z,100592.80
2022-12-20T22:29:05.723Z,100591.30
2022-12-20T22:31:34.979Z,100581.98
2022-12-20T22:34:04.052Z,100578.25
2022-12-20T22:36:31.831Z,100576.04
2022-12-20T22:38:59.765Z,100573.69
2022-12-20T22:41:30.491Z,100570.95
2022-12-20T22:43:59.509Z,100571.42
2022-12-20T22:46:29.349Z,100575.05
2022-12-20T22:48:58.922Z,100571.09
2022-12-20T22:51:27.575Z,100571.19
2022-12-20T22:53:57.431Z,100573.44
2022-12-20T22:56:26.237Z,100579.62
2022-12-20T22:58:53.990Z,100573.13
2022-12-20T23:01:21.963Z,100566.14
2022-12-20T23:03:50.203Z,100562.52
2022-12-20T23:06:20.433Z,100556.69
2022-12-20T23:08:49.141Z,100552.73
2022-12-20T23:11:42.153Z,100548.91
2022-12-20T23:14:39.961Z,100542.63
2022-12-20T23:17:09.326Z,100538.12
2022-12-20T23:19:56.212Z,100530.98
2022-12-20T23:22:40.240Z,100530.02
2022-12-20T23:25:09.806Z,100522.10
2022-12-20T23:27:39.072Z,100525.39
2022-12-20T23:30:10.295Z,100518.30
2022-12-20T23:32:38.346Z,100516.65
2022-12-20T23:35:12.113Z,100515.52
2022-12-20T23:37:41.087Z,100512.49
2022-12-20T23:40:10.126Z,100511.48
2022-12-20T23:42:38.392Z,100511.71
2022-12-20T23:45:07.951Z,100506.66
2022-12-20T23:47:35.823Z,100503.05
2022-12-20T23:50:04.175Z,100503.23
2022-12-20T23:52:31.825Z,100498.95
2022-12-20T23:54:59.577Z,100485.67
2022-12-20T23:57:30.146Z,100474.59
2022-12-20T23:59:57.883Z,100472.21
